createdAt,value
2019-04-14T00:03:22.061Z,33.37
2019-04-14T00:08:41.567Z,32.20
2019-04-14T00:14:00.944Z,34.47
2019-04-14T00:19:19.645Z,36.00
2019-04-14T00:24:38.364Z,32.23
2019-04-14T00:29:56.912Z,30.67
2019-04-14T00:35:29.900Z,31.05
2019-04-14T00:41:07.844Z,33.63
2019-04-14T00:46:30.868Z,30.20
2019-04-14T00:51:48.647Z,33.23
2019-04-14T00:57:07.362Z,30.60
2019-04-14T01:02:26.003Z,31.67
2019-04-14T01:07:45.568Z,34.07
2019-04-14T01:13:06.717Z,35.87
2019-04-14T01:18:25.433Z,30.47
2019-04-14T01:23:44.124Z,33.70
2019-04-14T01:29:03.671Z,31.30
2019-04-14T01:34:22.241Z,32.87
2019-04-14T01:39:41.476Z,38.00
2019-04-14T01:45:00.016Z,33.57
2019-04-14T01:50:21.281Z,36.80
2019-04-14T01:55:41.675Z,32.67
2019-04-14T02:01:04.289Z,38.17
2019-04-14T02:06:24.430Z,35.13
2019-04-14T02:11:44.437Z,35.67
2019-04-14T02:17:04.400Z,38.90
2019-04-14T02:22:24.443Z,32.60
2019-04-14T02:27:43.113Z,32.67
2019-04-14T02:33:33.784Z,33.20
2019-04-14T02:38:57.217Z,33.93
2019-04-14T02:44:12.464Z,33.80
2019-04-14T02:49:34.894Z,35.17
2019-04-14T03:00:07.794Z,33.90
2019-04-14T03:05:26.895Z,36.63
2019-04-14T03:10:48.006Z,41.47
2019-04-14T03:16:17.430Z,32.77
2019-04-14T03:27:04.876Z,35.60
2019-04-14T03:32:42.635Z,36.27
2019-04-14T03:38:17.097Z,32.73
2019-04-14T03:43:19.698Z,30.80
2019-04-14T03:48:42.787Z,34.80
2019-04-14T03:53:41.282Z,31.33
2019-04-14T03:58:37.913Z,33.03
2019-04-14T04:03:56.477Z,32.80
2019-04-14T04:09:15.146Z,37.10
2019-04-14T04:14:34.105Z,39.83
2019-04-14T04:20:00.008Z,34.77
2019-04-14T04:25:23.302Z,34.88
2019-04-14T04:30:53.698Z,35.77
2019-04-14T04:36:27.024Z,30.87
2019-04-14T04:41:45.589Z,34.67
2019-04-14T04:47:05.710Z,37.67
2019-04-14T04:52:24.309Z,33.23
2019-04-14T04:57:43.826Z,37.03
2019-04-14T05:03:03.582Z,34.57
2019-04-14T05:08:22.632Z,30.80
2019-04-14T05:13:42.487Z,33.43
2019-04-14T05:19:14.076Z,33.80
2019-04-14T05:24:23.009Z,35.13
2019-04-14T05:29:42.938Z,32.83
2019-04-14T05:35:03.043Z,31.57
2019-04-14T05:40:23.508Z,32.33
2019-04-14T05:45:42.259Z,32.53
2019-04-14T05:51:06.649Z,28.10
2019-04-14T05:56:25.295Z,30.90
2019-04-14T06:01:44.319Z,29.80
2019-04-14T06:07:03.605Z,30.27
2019-04-14T06:12:22.077Z,28.90
2019-04-14T06:17:40.754Z,30.17
2019-04-14T06:22:59.887Z,28.53
2019-04-14T06:28:18.359Z,29.13
2019-04-14T06:33:38.645Z,29.70
2019-04-14T06:38:58.893Z,26.60
2019-04-14T06:44:17.755Z,20.03
2019-04-14T06:49:48.220Z,26.80
2019-04-14T06:54:57.101Z,26.67
2019-04-14T07:00:15.768Z,24.43
2019-04-14T07:05:34.338Z,25.60
2019-04-14T07:10:53.038Z,27.60
2019-04-14T07:16:11.677Z,26.80
2019-04-14T07:21:30.327Z,25.50
2019-04-14T07:26:48.910Z,25.77
2019-04-14T07:32:11.864Z,23.17
2019-04-14T07:37:32.157Z,22.23
2019-04-14T07:43:07.243Z,20.70
2019-04-14T07:48:30.312Z,21.57
2019-04-14T07:53:53.572Z,20.23
2019-04-14T07:59:22.739Z,20.83
2019-04-14T08:04:43.018Z,18.70
2019-04-14T08:10:01.647Z,19.90
2019-04-14T08:15:20.271Z,19.67
2019-04-14T08:20:39.674Z,19.50
2019-04-14T08:25:58.353Z,18.43
2019-04-14T08:31:16.970Z,17.73
2019-04-14T08:36:35.603Z,17.97
2019-04-14T08:42:11.734Z,18.50
2019-04-14T08:47:47.892Z,16.50
2019-04-14T08:53:13.841Z,14.43
2019-04-14T08:58:39.472Z,15.20
2019-04-14T09:03:59.749Z,13.97
2019-04-14T09:09:23.167Z,15.93
2019-04-14T09:14:41.702Z,15.10
2019-04-14T09:20:00.262Z,13.33
2019-04-14T09:25:18.839Z,13.90
2019-04-14T09:30:37.459Z,13.20
2019-04-14T09:35:56.018Z,12.07
2019-04-14T09:41:14.590Z,11.93
2019-04-14T09:46:33.513Z,13.33
2019-04-14T09:51:52.138Z,10.73
2019-04-14T09:57:10.699Z,12.58
2019-04-14T10:02:29.608Z,11.40
2019-04-14T10:07:48.173Z,11.20
2019-04-14T10:13:06.817Z,11.47
2019-04-14T10:18:25.389Z,10.90
2019-04-14T10:23:44.042Z,11.07
2019-04-14T10:29:02.888Z,10.83
2019-04-14T10:34:21.559Z,10.40
2019-04-14T10:39:40.132Z,11.23
2019-04-14T10:44:59.037Z,9.07
2019-04-14T10:50:29.855Z,9.48
2019-04-14T10:55:37.871Z,9.87
2019-04-14T11:00:58.019Z,9.67
2019-04-14T11:06:24.023Z,10.60
2019-04-14T11:11:44.054Z,8.47
2019-04-14T11:17:03.293Z,11.57
2019-04-14T11:22:21.916Z,10.57
2019-04-14T11:27:41.753Z,10.43
2019-04-14T11:33:10.846Z,11.30
2019-04-14T11:38:31.028Z,11.27
2019-04-14T11:43:49.600Z,9.97
2019-04-14T11:49:08.306Z,11.73
2019-04-14T11:54:26.961Z,7.83
2019-04-14T12:00:02.810Z,10.33
2019-04-14T12:05:39.139Z,10.60
2019-04-14T12:10:57.772Z,10.13
2019-04-14T12:16:16.440Z,8.37
2019-04-14T12:21:35.081Z,9.20
2019-04-14T12:26:53.633Z,9.17
2019-04-14T12:32:12.848Z,10.90
2019-04-14T12:37:31.425Z,9.37
2019-04-14T12:42:51.636Z,12.20
2019-04-14T12:48:21.983Z,11.03
2019-04-14T12:53:40.666Z,12.53
2019-04-14T12:59:01.139Z,11.10
2019-04-14T13:04:19.852Z,12.20
2019-04-14T13:09:38.425Z,11.33
2019-04-14T13:14:56.967Z,13.40
2019-04-14T13:20:15.688Z,11.95
2019-04-14T13:25:34.312Z,12.00
2019-04-14T13:30:53.553Z,11.67
2019-04-14T13:36:12.204Z,12.33
2019-04-14T13:41:30.693Z,11.20
2019-04-14T13:46:49.380Z,12.67
2019-04-14T13:52:08.004Z,10.50
2019-04-14T13:57:26.847Z,11.83
2019-04-14T14:02:45.468Z,11.37
2019-04-14T14:08:04.184Z,12.47
2019-04-14T14:13:36.117Z,13.83
2019-04-14T14:18:56.321Z,9.63
2019-04-14T14:24:28.772Z,13.32
2019-04-14T14:29:47.337Z,11.50
2019-04-14T14:35:06.964Z,11.12
2019-04-14T14:40:25.570Z,13.40
2019-04-14T14:45:48.407Z,11.37
2019-04-14T14:51:14.563Z,12.67
2019-04-14T14:56:34.641Z,11.03
2019-04-14T15:01:53.261Z,11.60
2019-04-14T15:07:11.857Z,11.97
2019-04-14T15:12:30.492Z,12.57
2019-04-14T15:17:49.119Z,11.90
2019-04-14T15:23:07.876Z,12.90
2019-04-14T15:28:26.486Z,12.70
2019-04-14T15:33:45.117Z,12.57
2019-04-14T15:39:06.277Z,12.23
2019-04-14T15:44:24.846Z,11.93
2019-04-14T15:49:43.549Z,13.60
2019-04-14T15:55:02.141Z,11.47
2019-04-14T16:00:25.492Z,10.67
2019-04-14T16:05:51.693Z,12.10
2019-04-14T16:11:21.032Z,11.57
2019-04-14T16:16:57.329Z,13.95
2019-04-14T16:22:16.259Z,10.93
2019-04-14T16:27:36.526Z,12.83
2019-04-14T16:38:46.715Z,11.78
2019-04-14T16:44:05.410Z,12.00
2019-04-14T16:49:23.978Z,11.60
2019-04-14T16:54:46.948Z,11.13
2019-04-14T17:00:08.458Z,10.70
2019-04-14T17:05:27.074Z,9.47
2019-04-14T17:10:45.651Z,10.30
2019-04-14T17:16:14.810Z,10.40
2019-04-14T17:21:37.699Z,10.00
2019-04-14T17:27:03.828Z,11.27
2019-04-14T17:32:39.944Z,11.23
2019-04-14T17:38:00.166Z,10.17
2019-04-14T17:43:20.288Z,10.67
2019-04-14T17:48:52.512Z,10.67
2019-04-14T17:54:29.751Z,10.47
2019-04-14T17:59:49.353Z,9.65
2019-04-14T18:05:09.602Z,9.60
2019-04-14T18:10:29.868Z,9.30
2019-04-14T18:15:58.968Z,9.30
2019-04-14T18:21:17.848Z,11.07
2019-04-14T18:26:36.578Z,8.87
2019-04-14T18:32:12.644Z,10.10
2019-04-14T18:37:47.785Z,11.17
2019-04-14T18:43:10.949Z,9.93
2019-04-14T18:48:40.415Z,10.50
2019-04-14T18:54:06.742Z,10.27
2019-04-14T18:59:33.091Z,10.57
2019-04-14T19:04:51.743Z,10.07
2019-04-14T19:10:10.494Z,9.93
2019-04-14T19:15:33.521Z,10.03
2019-04-14T19:20:53.817Z,8.13
2019-04-14T19:26:12.434Z,10.43
2019-04-14T19:31:31.083Z,9.57
2019-04-14T19:36:49.890Z,7.57
2019-04-14T19:42:08.464Z,8.87
2019-04-14T19:47:27.124Z,9.33
2019-04-14T19:52:45.750Z,8.70
2019-04-14T19:58:04.369Z,8.33
2019-04-14T20:03:22.990Z,8.23
2019-04-14T20:08:41.613Z,8.80
2019-04-14T20:14:00.234Z,8.77
2019-04-14T20:19:23.680Z,9.03
2019-04-14T20:24:52.784Z,8.93
2019-04-14T20:30:22.114Z,9.03
2019-04-14T20:35:40.769Z,9.33
2019-04-14T20:41:00.356Z,8.67
2019-04-14T20:46:19.029Z,8.20
2019-04-14T20:51:37.831Z,8.33
2019-04-14T20:56:56.772Z,9.33
2019-04-14T21:02:29.095Z,8.87
2019-04-14T21:07:49.199Z,9.33
2019-04-14T21:13:24.100Z,8.63
2019-04-14T21:18:53.353Z,9.13
2019-04-14T21:24:13.496Z,9.20
2019-04-14T21:29:42.442Z,9.30
2019-04-14T21:35:14.456Z,8.73
2019-04-14T21:40:40.601Z,8.90
2019-04-14T21:45:59.292Z,9.63
2019-04-14T21:51:17.770Z,9.27
2019-04-14T21:56:36.834Z,9.30
2019-04-14T22:02:13.323Z,11.13
2019-04-14T22:07:36.554Z,9.73
2019-04-14T22:12:55.095Z,9.33
2019-04-14T22:18:14.146Z,9.87
2019-04-14T22:23:32.696Z,10.72
2019-04-14T22:28:51.248Z,10.47
2019-04-14T22:34:09.929Z,9.83
2019-04-14T22:39:28.419Z,10.43
2019-04-14T22:44:46.970Z,9.77
2019-04-14T22:50:06.179Z,9.03
2019-04-14T22:55:24.721Z,9.10
2019-04-14T23:00:44.980Z,9.93
2019-04-14T23:06:05.252Z,10.20
2019-04-14T23:11:34.317Z,9.87
2019-04-14T23:17:00.467Z,9.87
2019-04-14T23:22:29.629Z,9.63
2019-04-14T23:27:48.251Z,8.40
2019-04-14T23:33:06.927Z,8.60
2019-04-14T23:38:25.479Z,9.23
2019-04-14T23:43:44.053Z,10.17
2019-04-14T23:49:02.610Z,10.17
2019-04-14T23:54:21.155Z,9.23
2019-04-14T23:59:39.704Z,10.37
